»·PEaware :: N921VN KALW-8W5

N921VN :: KALW-8W5

FLIGHT INFORMATION

Flight Status: Arrived
Operator: Privately registered:
United States
More flights under this callsign
Pilot: Kevin M. (7)
Aircraft: BEECH AIRCRAFT BARON
(BE58)
More flights by this aircraft type
Origin: KALW Walla Walla Regl
United States
Destination: 8W5 Apex Airpark
United States
More flights between these airports :: More routes between these airports
Route:
File this flight plan on PilotEdge
Remarks: alphabet challenge
Altitude:
(Current/Filed)
8,500ft
Speed:
(Current/Filed)
150kts
Departed: 18-Jun-20 07:14 AM
Arrived: 18-Jun-20 08:29 AM
Distance/Time
Traveled:
205nm/1:15
Distance/Time
To Go:
Arrived

Flight Plot

Page will automatically refresh every two minutes.

Flight plan parsing failed; only flown route is shown


Map Options




Map Legend


Flown Route
Filed Route
Departure Airport
Arrival Airport
Navaid (VOR, NDB)
Fix

Horizontal Profiles

Position Reports

Time Latitude Longitude Heading Altitude Ground
Speed
18-Jun-20 07:12 46.092304 -118.280696 17 1188ft 3kts
18-Jun-20 07:13 46.094942 -118.281496 223 1185ft 18kts
18-Jun-20 07:14 46.075823 -118.307772 235 2406ft 117kts
18-Jun-20 07:15 46.066163 -118.369144 254 2986ft 180kts
18-Jun-20 07:16 46.057217 -118.442472 265 3499ft 189kts
18-Jun-20 07:17 46.058538 -118.518621 274 3998ft 191kts
18-Jun-20 07:18 46.062798 -118.595224 274 4505ft 191kts
18-Jun-20 07:19 46.065994 -118.670367 280 4999ft 188kts
18-Jun-20 07:20 46.084822 -118.739640 293 5506ft 183kts
18-Jun-20 07:21 46.104869 -118.806555 296 6008ft 180kts
18-Jun-20 07:22 46.126518 -118.871308 297 6507ft 179kts
18-Jun-20 07:23 46.149291 -118.939212 297 6491ft 191kts
18-Jun-20 07:24 46.172557 -119.008299 297 6490ft 191kts
18-Jun-20 07:25 46.195932 -119.077532 296 6489ft 192kts
18-Jun-20 07:25 46.196524 -119.141645 277 6487ft 191kts
18-Jun-20 07:27 46.205052 -119.229979 279 6482ft 189kts
18-Jun-20 07:28 46.213048 -119.304878 279 6480ft 188kts
18-Jun-20 07:29 46.221212 -119.379211 279 6480ft 187kts
18-Jun-20 07:30 46.229432 -119.453856 279 6481ft 187kts
18-Jun-20 07:30 46.236276 -119.515860 279 6480ft 187kts
18-Jun-20 07:31 46.244502 -119.590182 279 6480ft 187kts
18-Jun-20 07:32 46.252788 -119.664888 279 6481ft 188kts
18-Jun-20 07:33 46.279132 -119.726461 317 6482ft 189kts
18-Jun-20 07:34 46.318631 -119.777041 317 6482ft 189kts
18-Jun-20 07:35 46.357794 -119.827583 317 6486ft 188kts
18-Jun-20 07:36 46.396437 -119.878119 317 6489ft 187kts
18-Jun-20 07:37 46.434934 -119.929255 317 6492ft 186kts
18-Jun-20 07:38 46.452710 -119.998989 284 6498ft 189kts
18-Jun-20 07:39 46.464173 -120.073711 284 6499ft 190kts
18-Jun-20 07:40 46.475683 -120.148669 284 6499ft 190kts
18-Jun-20 07:41 46.487377 -120.223578 292 6494ft 189kts
18-Jun-20 07:42 46.510201 -120.291981 297 6497ft 188kts
18-Jun-20 07:43 46.534634 -120.359307 310 6500ft 187kts
18-Jun-20 07:44 46.567671 -120.417659 311 6498ft 187kts
18-Jun-20 07:45 46.607535 -120.463788 336 6501ft 186kts
18-Jun-20 07:46 46.649818 -120.505968 322 6500ft 186kts
18-Jun-20 07:47 46.690726 -120.552313 335 6499ft 185kts
18-Jun-20 07:48 46.738608 -120.581462 337 6498ft 186kts
18-Jun-20 07:49 46.784153 -120.618305 336 6498ft 187kts
18-Jun-20 07:50 46.835426 -120.630361 354 6499ft 187kts
18-Jun-20 07:51 46.887172 -120.640945 354 6501ft 189kts
18-Jun-20 07:52 46.939592 -120.651613 353 6499ft 189kts
18-Jun-20 07:53 46.991666 -120.664642 333 6500ft 190kts
18-Jun-20 07:54 47.036344 -120.706326 322 6498ft 191kts
18-Jun-20 07:55 47.077626 -120.755803 316 6499ft 191kts
18-Jun-20 07:56 47.107087 -120.820304 298 6499ft 192kts
18-Jun-20 07:57 47.131740 -120.890275 298 6499ft 192kts
18-Jun-20 07:58 47.156389 -120.960217 298 6498ft 192kts
18-Jun-20 07:59 47.181036 -121.030158 298 6499ft 193kts
18-Jun-20 08:00 47.205756 -121.100357 298 6498ft 192kts
18-Jun-20 08:01 47.230304 -121.170123 298 6498ft 192kts
18-Jun-20 08:02 47.254992 -121.240126 300 6507ft 192kts
18-Jun-20 08:03 47.286770 -121.299230 318 6954ft 178kts
18-Jun-20 08:04 47.324246 -121.345961 320 7453ft 175kts
18-Jun-20 08:05 47.357901 -121.396713 295 7954ft 175kts
18-Jun-20 08:06 47.377743 -121.462122 294 8453ft 174kts
18-Jun-20 08:07 47.397752 -121.527472 295 8953ft 174kts
18-Jun-20 08:08 47.417946 -121.592687 295 9450ft 175kts
18-Jun-20 08:09 47.438132 -121.657776 294 9948ft 174kts
18-Jun-20 08:10 47.458331 -121.722843 294 10447ft 174kts
18-Jun-20 08:11 47.480238 -121.788764 287 10614ft 185kts
18-Jun-20 08:12 47.482842 -121.865451 269 10610ft 188kts
18-Jun-20 08:13 47.482706 -121.942899 270 10611ft 188kts
18-Jun-20 08:14 47.483057 -122.020284 270 10611ft 188kts
18-Jun-20 08:15 47.483397 -122.098033 270 10611ft 188kts
18-Jun-20 08:16 47.483736 -122.175573 270 10611ft 188kts
18-Jun-20 08:17 47.484068 -122.253090 270 10613ft 188kts
18-Jun-20 08:18 47.484388 -122.330899 270 10616ft 188kts
18-Jun-20 08:19 47.484685 -122.409040 270 10554ft 190kts
18-Jun-20 08:20 47.488838 -122.486285 285 10555ft 188kts
18-Jun-20 08:21 47.502760 -122.561002 285 10556ft 189kts
18-Jun-20 08:22 47.516810 -122.636203 286 10556ft 189kts
18-Jun-20 08:23 47.529931 -122.712053 282 10439ft 192kts
18-Jun-20 08:24 47.564383 -122.771636 342 8461ft 228kts
18-Jun-20 08:25 47.617576 -122.765544 13 3960ft 165kts
18-Jun-20 08:26 47.653930 -122.745509 56 1772ft 138kts
18-Jun-20 08:27 47.641179 -122.729374 268 909ft 97kts
18-Jun-20 08:28 47.656017 -122.733261 10 509ft 27kts
18-Jun-20 08:29 47.661118 -122.732311 348 504ft 0kts
18-Jun-20 08:30 47.661118 -122.732311 348 504ft 0kts
18-Jun-20 08:31 47.661118 -122.732311 348 504ft 0kts
18-Jun-20 08:32 47.661118 -122.732311 348 504ft 0kts
18-Jun-20 08:33 47.661118 -122.732311 348 504ft 0kts
18-Jun-20 08:34 47.661118 -122.732311 348 504ft 0kts
18-Jun-20 08:35 47.661118 -122.732311 348 504ft 0kts
18-Jun-20 08:36 47.661118 -122.732311 348 504ft 0kts

Navigation Log

Ident Type
Flight plan parsing failed, navigation log unavailable